Impacts TAF Board INFO
FOR SITUATIONAL AWARENESS. NOT TO BE USED FOR FLIGHT PLANNING PURPOSES.
IDs:

KTPA - Tampa Intl Arpt, FL, US

Issued at 0522 UTC 17 Aug 2018
Updated at 0522 UTC 17 Aug 2018
Potential Impact None Slight Moderate High
Time0253Z 17/06Z 17/07Z 17/08Z 17/09Z 17/10Z 17/11Z 17/12Z 17/13Z 17/14Z 17/15Z 17/16Z 17/17Z 17/18Z>>
Type OBS PRVL PRVL PRVL PRVL PRVL PRVL PRVL PRVL PRVL PRVL PRVL PRVL PRVL
VIS 10 >6 >6 >6 >6 >6 >6 >6 >6 >6 >6 >6 >6 >6
CIG 100 100 100 250 250 -- -- -- -- -- -- -- -- --
Cover BKN BKN BKN BKN BKN SCT SCT SCT SCT SCT SCT SCT SCT SCT
FltCat VFR VFR VFR VFR VFR VFR VFR VFR VFR VFR VFR VFR VFR VFR
WX -- VCSH VCSH -- -- -- -- -- -- -- -- -- -- --
WDir 40 VRB VRB VRB VRB VRB VRB VRB VRB 140 140 140 210 210
WSpd 3 3 3 3 3 3 3 3 3 6 6 6 7 7
WGst -- -- -- -- -- -- -- -- -- -- -- -- -- --

Raw TAF
KTPA 170522Z 1706/1812 VRB03KT P6SM VCSH FEW025 BKN100
  FM170800 VRB03KT P6SM FEW025 SCT120 BKN250
  FM171000 VRB03KT P6SM SCT250
  FM171400 14006KT P6SM SCT025 SCT250
  FM171700 21007KT P6SM SCT040 SCT250
  FM171900 24007KT P6SM VCTS SCT040CB BKN250
  FM180100 08005KT P6SM VCSH SCT040 BKN100


Raw METAR
KTPA 170253Z 04003KT 10SM FEW026 SCT050 BKN100 BKN220 25/22 A3020 RMK AO2 LTG DSNT NW SLP226 FRQ LTGIC DSNT NW-NE CB DSNT NW-NE CB DSNT S-W 60002 T02500217 51017 $
KTPA 170237Z 07003KT 10SM FEW026 SCT050 BKN150 BKN250 25/22 A3020 RMK AO2 LTG DSNT SW OCNL LTGIC DSNT N-NE CB DSNT N-NE CB DSNT S-W T02500217 $

METAR Board
Radar Display
Forecast Discussion

FOR SITUATIONAL AWARENESS. NOT TO BE USED FOR FLIGHT PLANNING PURPOSES.